sensor_id;sensor_type;location;lat;lon;timestamp;P1;durP1;ratioP1;P2;durP2;ratioP2
38787;SDS011;24536;45.488;12.238;2023-12-28T00:00:27;51.22;;;34.45;;
38787;SDS011;24536;45.488;12.238;2023-12-28T00:02:53;45.35;;;34.05;;
38787;SDS011;24536;45.488;12.238;2023-12-28T00:05:19;56.08;;;37.50;;
38787;SDS011;24536;45.488;12.238;2023-12-28T00:07:44;47.35;;;33.25;;
38787;SDS011;24536;45.488;12.238;2023-12-28T00:10:10;43.75;;;32.58;;
38787;SDS011;24536;45.488;12.238;2023-12-28T00:12:36;46.83;;;34.40;;
38787;SDS011;24536;45.488;12.238;2023-12-28T00:15:01;54.78;;;34.92;;
38787;SDS011;24536;45.488;12.238;2023-12-28T00:17:27;52.42;;;34.65;;
38787;SDS011;24536;45.488;12.238;2023-12-28T00:19:53;52.47;;;34.47;;
38787;SDS011;24536;45.488;12.238;2023-12-28T00:22:19;46.60;;;33.90;;
38787;SDS011;24536;45.488;12.238;2023-12-28T00:24:45;48.65;;;31.52;;
38787;SDS011;24536;45.488;12.238;2023-12-28T00:27:10;53.10;;;36.53;;
38787;SDS011;24536;45.488;12.238;2023-12-28T00:29:36;52.05;;;35.17;;
38787;SDS011;24536;45.488;12.238;2023-12-28T00:32:05;47.17;;;33.53;;
38787;SDS011;24536;45.488;12.238;2023-12-28T00:34:31;51.55;;;35.33;;
38787;SDS011;24536;45.488;12.238;2023-12-28T00:36:56;55.65;;;37.03;;
38787;SDS011;24536;45.488;12.238;2023-12-28T00:39:22;48.95;;;33.67;;
38787;SDS011;24536;45.488;12.238;2023-12-28T00:41:48;57.22;;;38.83;;
38787;SDS011;24536;45.488;12.238;2023-12-28T00:44:13;50.50;;;35.83;;
38787;SDS011;24536;45.488;12.238;2023-12-28T00:46:39;56.58;;;36.53;;
38787;SDS011;24536;45.488;12.238;2023-12-28T00:49:05;50.45;;;34.05;;
38787;SDS011;24536;45.488;12.238;2023-12-28T00:51:30;47.50;;;34.45;;
38787;SDS011;24536;45.488;12.238;2023-12-28T00:53:56;54.30;;;34.22;;
38787;SDS011;24536;45.488;12.238;2023-12-28T00:56:22;54.65;;;36.22;;
38787;SDS011;24536;45.488;12.238;2023-12-28T00:58:47;48.35;;;35.30;;
38787;SDS011;24536;45.488;12.238;2023-12-28T01:01:13;51.33;;;35.72;;
38787;SDS011;24536;45.488;12.238;2023-12-28T01:03:39;49.00;;;34.50;;
38787;SDS011;24536;45.488;12.238;2023-12-28T01:06:05;48.97;;;34.10;;
38787;SDS011;24536;45.488;12.238;2023-12-28T01:08:31;50.95;;;34.72;;
38787;SDS011;24536;45.488;12.238;2023-12-28T01:10:59;51.28;;;35.45;;
38787;SDS011;24536;45.488;12.238;2023-12-28T01:13:25;51.58;;;35.90;;
38787;SDS011;24536;45.488;12.238;2023-12-28T01:15:50;49.47;;;34.70;;
38787;SDS011;24536;45.488;12.238;2023-12-28T01:18:16;49.38;;;35.35;;
38787;SDS011;24536;45.488;12.238;2023-12-28T01:20:42;52.38;;;36.78;;
38787;SDS011;24536;45.488;12.238;2023-12-28T01:23:07;49.10;;;35.30;;
38787;SDS011;24536;45.488;12.238;2023-12-28T01:25:33;48.22;;;33.85;;
38787;SDS011;24536;45.488;12.238;2023-12-28T01:27:59;52.50;;;34.20;;
38787;SDS011;24536;45.488;12.238;2023-12-28T01:30:25;52.47;;;35.22;;
38787;SDS011;24536;45.488;12.238;2023-12-28T01:32:51;49.05;;;35.03;;
38787;SDS011;24536;45.488;12.238;2023-12-28T01:35:17;53.58;;;36.53;;
38787;SDS011;24536;45.488;12.238;2023-12-28T01:37:42;44.45;;;33.13;;
38787;SDS011;24536;45.488;12.238;2023-12-28T01:40:08;47.08;;;34.13;;
38787;SDS011;24536;45.488;12.238;2023-12-28T01:42:34;56.60;;;36.42;;
38787;SDS011;24536;45.488;12.238;2023-12-28T01:45:00;48.72;;;35.40;;
38787;SDS011;24536;45.488;12.238;2023-12-28T01:47:26;51.55;;;35.70;;
38787;SDS011;24536;45.488;12.238;2023-12-28T01:49:53;51.92;;;37.05;;
38787;SDS011;24536;45.488;12.238;2023-12-28T01:52:20;49.83;;;35.17;;
38787;SDS011;24536;45.488;12.238;2023-12-28T01:54:46;51.30;;;36.45;;
38787;SDS011;24536;45.488;12.238;2023-12-28T01:57:13;48.53;;;35.70;;
38787;SDS011;24536;45.488;12.238;2023-12-28T01:59:41;52.05;;;35.13;;
38787;SDS011;24536;45.488;12.238;2023-12-28T02:02:06;48.05;;;33.28;;
38787;SDS011;24536;45.488;12.238;2023-12-28T02:04:32;50.75;;;36.05;;
38787;SDS011;24536;45.488;12.238;2023-12-28T02:06:59;54.28;;;37.60;;
38787;SDS011;24536;45.488;12.238;2023-12-28T02:09:25;53.15;;;35.08;;
38787;SDS011;24536;45.488;12.238;2023-12-28T02:11:51;50.83;;;35.13;;
38787;SDS011;24536;45.488;12.238;2023-12-28T02:14:18;49.03;;;35.33;;
38787;SDS011;24536;45.488;12.238;2023-12-28T02:16:49;49.67;;;34.42;;
38787;SDS011;24536;45.488;12.238;2023-12-28T02:19:25;50.42;;;34.47;;
38787;SDS011;24536;45.488;12.238;2023-12-28T02:22:01;55.25;;;35.42;;
38787;SDS011;24536;45.488;12.238;2023-12-28T02:24:28;49.30;;;36.13;;
38787;SDS011;24536;45.488;12.238;2023-12-28T02:26:54;53.03;;;35.42;;
38787;SDS011;24536;45.488;12.238;2023-12-28T02:29:20;57.20;;;36.53;;
38787;SDS011;24536;45.488;12.238;2023-12-28T02:31:46;51.15;;;36.10;;
38787;SDS011;24536;45.488;12.238;2023-12-28T02:34:20;52.17;;;35.55;;
38787;SDS011;24536;45.488;12.238;2023-12-28T02:36:52;51.38;;;36.00;;
38787;SDS011;24536;45.488;12.238;2023-12-28T02:39:20;57.08;;;37.35;;
38787;SDS011;24536;45.488;12.238;2023-12-28T02:41:47;53.90;;;36.15;;
38787;SDS011;24536;45.488;12.238;2023-12-28T02:44:13;51.65;;;37.33;;
38787;SDS011;24536;45.488;12.238;2023-12-28T02:46:39;57.88;;;38.67;;
38787;SDS011;24536;45.488;12.238;2023-12-28T02:49:04;58.20;;;38.13;;
38787;SDS011;24536;45.488;12.238;2023-12-28T02:51:30;52.50;;;37.20;;
38787;SDS011;24536;45.488;12.238;2023-12-28T02:53:56;52.15;;;35.80;;
38787;SDS011;24536;45.488;12.238;2023-12-28T02:56:21;54.53;;;37.03;;
38787;SDS011;24536;45.488;12.238;2023-12-28T02:58:47;59.22;;;40.63;;
38787;SDS011;24536;45.488;12.238;2023-12-28T03:01:13;44.50;;;28.73;;
38787;SDS011;24536;45.488;12.238;2023-12-28T03:03:38;50.33;;;34.95;;
38787;SDS011;24536;45.488;12.238;2023-12-28T03:06:23;49.47;;;34.10;;
38787;SDS011;24536;45.488;12.238;2023-12-28T03:08:49;48.50;;;34.08;;
38787;SDS011;24536;45.488;12.238;2023-12-28T03:11:15;65.68;;;42.67;;
38787;SDS011;24536;45.488;12.238;2023-12-28T03:13:41;67.07;;;43.53;;
38787;SDS011;24536;45.488;12.238;2023-12-28T03:16:06;47.80;;;33.35;;
38787;SDS011;24536;45.488;12.238;2023-12-28T03:18:32;56.65;;;37.08;;
38787;SDS011;24536;45.488;12.238;2023-12-28T03:20:58;55.17;;;37.03;;
38787;SDS011;24536;45.488;12.238;2023-12-28T03:23:24;57.42;;;38.55;;
38787;SDS011;24536;45.488;12.238;2023-12-28T03:25:50;50.20;;;35.03;;
38787;SDS011;24536;45.488;12.238;2023-12-28T03:28:16;51.75;;;35.47;;
38787;SDS011;24536;45.488;12.238;2023-12-28T03:30:41;47.15;;;32.95;;
38787;SDS011;24536;45.488;12.238;2023-12-28T03:33:07;46.15;;;34.25;;
38787;SDS011;24536;45.488;12.238;2023-12-28T03:35:33;53.45;;;36.63;;
38787;SDS011;24536;45.488;12.238;2023-12-28T03:37:59;52.88;;;35.63;;
38787;SDS011;24536;45.488;12.238;2023-12-28T03:40:25;56.60;;;38.53;;
38787;SDS011;24536;45.488;12.238;2023-12-28T03:42:51;60.78;;;40.83;;
38787;SDS011;24536;45.488;12.238;2023-12-28T03:45:17;52.45;;;34.47;;
38787;SDS011;24536;45.488;12.238;2023-12-28T03:47:42;52.95;;;35.67;;
38787;SDS011;24536;45.488;12.238;2023-12-28T03:50:08;48.30;;;34.50;;
38787;SDS011;24536;45.488;12.238;2023-12-28T03:52:34;53.50;;;35.90;;
38787;SDS011;24536;45.488;12.238;2023-12-28T03:55:00;54.70;;;35.55;;
38787;SDS011;24536;45.488;12.238;2023-12-28T03:57:25;51.53;;;35.85;;
38787;SDS011;24536;45.488;12.238;2023-12-28T03:59:51;48.30;;;32.58;;
38787;SDS011;24536;45.488;12.238;2023-12-28T04:02:18;53.92;;;36.17;;
38787;SDS011;24536;45.488;12.238;2023-12-28T04:04:44;52.42;;;36.53;;
38787;SDS011;24536;45.488;12.238;2023-12-28T04:07:10;52.72;;;36.75;;
38787;SDS011;24536;45.488;12.238;2023-12-28T04:09:36;49.92;;;35.08;;
38787;SDS011;24536;45.488;12.238;2023-12-28T04:12:01;52.22;;;36.58;;
38787;SDS011;24536;45.488;12.238;2023-12-28T04:14:27;50.85;;;35.67;;
38787;SDS011;24536;45.488;12.238;2023-12-28T04:16:53;57.03;;;35.92;;
38787;SDS011;24536;45.488;12.238;2023-12-28T04:19:18;56.72;;;37.92;;
38787;SDS011;24536;45.488;12.238;2023-12-28T04:21:44;53.22;;;37.38;;
38787;SDS011;24536;45.488;12.238;2023-12-28T04:24:10;52.92;;;37.03;;
38787;SDS011;24536;45.488;12.238;2023-12-28T04:26:36;61.40;;;40.05;;
38787;SDS011;24536;45.488;12.238;2023-12-28T04:29:02;52.33;;;36.65;;
38787;SDS011;24536;45.488;12.238;2023-12-28T04:31:28;55.05;;;37.05;;
38787;SDS011;24536;45.488;12.238;2023-12-28T04:33:53;53.30;;;36.10;;
38787;SDS011;24536;45.488;12.238;2023-12-28T04:36:19;57.00;;;39.35;;
38787;SDS011;24536;45.488;12.238;2023-12-28T04:38:45;47.60;;;34.97;;
38787;SDS011;24536;45.488;12.238;2023-12-28T04:41:10;51.50;;;35.83;;
38787;SDS011;24536;45.488;12.238;2023-12-28T04:43:36;48.95;;;35.88;;
38787;SDS011;24536;45.488;12.238;2023-12-28T04:46:03;59.85;;;38.22;;
38787;SDS011;24536;45.488;12.238;2023-12-28T04:48:30;53.97;;;38.15;;
38787;SDS011;24536;45.488;12.238;2023-12-28T04:51:01;51.35;;;36.35;;
38787;SDS011;24536;45.488;12.238;2023-12-28T04:53:28;51.83;;;36.45;;
38787;SDS011;24536;45.488;12.238;2023-12-28T04:55:55;53.25;;;36.90;;
38787;SDS011;24536;45.488;12.238;2023-12-28T04:58:20;47.78;;;34.55;;
38787;SDS011;24536;45.488;12.238;2023-12-28T05:00:46;54.30;;;35.90;;
38787;SDS011;24536;45.488;12.238;2023-12-28T05:03:12;52.45;;;34.88;;
38787;SDS011;24536;45.488;12.238;2023-12-28T05:05:37;51.65;;;36.45;;
38787;SDS011;24536;45.488;12.238;2023-12-28T05:08:03;56.33;;;37.30;;
38787;SDS011;24536;45.488;12.238;2023-12-28T05:10:29;52.90;;;37.45;;
38787;SDS011;24536;45.488;12.238;2023-12-28T05:12:55;54.05;;;37.08;;
38787;SDS011;24536;45.488;12.238;2023-12-28T05:15:21;49.15;;;34.92;;
38787;SDS011;24536;45.488;12.238;2023-12-28T05:17:46;48.03;;;34.42;;
38787;SDS011;24536;45.488;12.238;2023-12-28T05:20:12;52.20;;;37.25;;
38787;SDS011;24536;45.488;12.238;2023-12-28T05:22:38;57.50;;;36.30;;
38787;SDS011;24536;45.488;12.238;2023-12-28T05:25:04;51.90;;;36.83;;
38787;SDS011;24536;45.488;12.238;2023-12-28T05:27:29;49.03;;;35.53;;
38787;SDS011;24536;45.488;12.238;2023-12-28T05:29:55;50.35;;;35.75;;
38787;SDS011;24536;45.488;12.238;2023-12-28T05:32:21;51.35;;;36.35;;
38787;SDS011;24536;45.488;12.238;2023-12-28T05:34:47;52.67;;;37.95;;
38787;SDS011;24536;45.488;12.238;2023-12-28T05:37:14;49.15;;;34.50;;
38787;SDS011;24536;45.488;12.238;2023-12-28T05:39:40;52.53;;;35.97;;
38787;SDS011;24536;45.488;12.238;2023-12-28T05:42:05;52.67;;;35.85;;
38787;SDS011;24536;45.488;12.238;2023-12-28T05:44:31;54.22;;;37.10;;
38787;SDS011;24536;45.488;12.238;2023-12-28T05:46:57;52.85;;;36.33;;
38787;SDS011;24536;45.488;12.238;2023-12-28T05:49:22;52.05;;;35.30;;
38787;SDS011;24536;45.488;12.238;2023-12-28T05:51:50;52.63;;;35.75;;
38787;SDS011;24536;45.488;12.238;2023-12-28T05:54:15;47.65;;;35.08;;
38787;SDS011;24536;45.488;12.238;2023-12-28T05:56:41;51.40;;;34.83;;
38787;SDS011;24536;45.488;12.238;2023-12-28T05:59:07;57.78;;;35.25;;
38787;SDS011;24536;45.488;12.238;2023-12-28T06:01:40;50.65;;;36.80;;
38787;SDS011;24536;45.488;12.238;2023-12-28T06:04:07;55.88;;;37.03;;
38787;SDS011;24536;45.488;12.238;2023-12-28T06:06:33;48.88;;;35.38;;
38787;SDS011;24536;45.488;12.238;2023-12-28T06:08:59;52.35;;;35.88;;
38787;SDS011;24536;45.488;12.238;2023-12-28T06:11:24;49.30;;;35.67;;
38787;SDS011;24536;45.488;12.238;2023-12-28T06:13:50;52.78;;;36.40;;
38787;SDS011;24536;45.488;12.238;2023-12-28T06:16:16;56.78;;;38.72;;
38787;SDS011;24536;45.488;12.238;2023-12-28T06:18:41;55.53;;;35.53;;
38787;SDS011;24536;45.488;12.238;2023-12-28T06:21:07;51.83;;;35.05;;
38787;SDS011;24536;45.488;12.238;2023-12-28T06:23:33;53.38;;;36.72;;
38787;SDS011;24536;45.488;12.238;2023-12-28T06:26:04;48.20;;;34.38;;
38787;SDS011;24536;45.488;12.238;2023-12-28T06:28:31;49.33;;;36.55;;
38787;SDS011;24536;45.488;12.238;2023-12-28T06:30:57;47.92;;;33.97;;
38787;SDS011;24536;45.488;12.238;2023-12-28T06:33:26;45.78;;;31.80;;
38787;SDS011;24536;45.488;12.238;2023-12-28T06:35:52;40.60;;;29.02;;
38787;SDS011;24536;45.488;12.238;2023-12-28T06:38:18;41.63;;;28.63;;
38787;SDS011;24536;45.488;12.238;2023-12-28T06:40:44;38.17;;;28.10;;
38787;SDS011;24536;45.488;12.238;2023-12-28T06:43:09;35.00;;;25.50;;
38787;SDS011;24536;45.488;12.238;2023-12-28T06:45:35;36.75;;;24.58;;
38787;SDS011;24536;45.488;12.238;2023-12-28T06:48:00;54.00;;;36.47;;
38787;SDS011;24536;45.488;12.238;2023-12-28T06:50:26;44.63;;;29.33;;
38787;SDS011;24536;45.488;12.238;2023-12-28T06:52:52;29.48;;;21.50;;
38787;SDS011;24536;45.488;12.238;2023-12-28T06:55:18;36.78;;;25.63;;
38787;SDS011;24536;45.488;12.238;2023-12-28T06:57:43;35.15;;;25.33;;
38787;SDS011;24536;45.488;12.238;2023-12-28T07:00:09;38.22;;;27.27;;
38787;SDS011;24536;45.488;12.238;2023-12-28T07:02:35;40.00;;;26.23;;
38787;SDS011;24536;45.488;12.238;2023-12-28T07:05:01;39.47;;;26.45;;
38787;SDS011;24536;45.488;12.238;2023-12-28T07:07:29;37.33;;;26.33;;
38787;SDS011;24536;45.488;12.238;2023-12-28T07:09:54;38.08;;;26.83;;
38787;SDS011;24536;45.488;12.238;2023-12-28T07:12:20;39.55;;;27.05;;
38787;SDS011;24536;45.488;12.238;2023-12-28T07:14:46;45.40;;;28.15;;
38787;SDS011;24536;45.488;12.238;2023-12-28T07:17:12;43.95;;;29.33;;
38787;SDS011;24536;45.488;12.238;2023-12-28T07:19:42;39.00;;;27.38;;
38787;SDS011;24536;45.488;12.238;2023-12-28T07:22:08;36.67;;;26.95;;
38787;SDS011;24536;45.488;12.238;2023-12-28T07:24:34;40.10;;;27.52;;
38787;SDS011;24536;45.488;12.238;2023-12-28T07:26:59;43.40;;;28.70;;
38787;SDS011;24536;45.488;12.238;2023-12-28T07:29:25;40.53;;;28.08;;
38787;SDS011;24536;45.488;12.238;2023-12-28T07:31:50;41.42;;;28.92;;
38787;SDS011;24536;45.488;12.238;2023-12-28T07:34:16;40.03;;;26.23;;
38787;SDS011;24536;45.488;12.238;2023-12-28T07:36:42;44.17;;;26.38;;
38787;SDS011;24536;45.488;12.238;2023-12-28T07:39:08;38.55;;;25.67;;
38787;SDS011;24536;45.488;12.238;2023-12-28T07:41:34;45.65;;;30.40;;
38787;SDS011;24536;45.488;12.238;2023-12-28T07:44:00;38.92;;;26.80;;
38787;SDS011;24536;45.488;12.238;2023-12-28T07:46:26;40.75;;;27.02;;
38787;SDS011;24536;45.488;12.238;2023-12-28T07:48:52;39.67;;;27.73;;
38787;SDS011;24536;45.488;12.238;2023-12-28T07:51:18;42.97;;;26.98;;
38787;SDS011;24536;45.488;12.238;2023-12-28T07:53:43;40.63;;;28.63;;
38787;SDS011;24536;45.488;12.238;2023-12-28T07:56:09;47.63;;;35.00;;
38787;SDS011;24536;45.488;12.238;2023-12-28T07:58:35;39.97;;;25.48;;
38787;SDS011;24536;45.488;12.238;2023-12-28T08:01:02;39.33;;;27.42;;
38787;SDS011;24536;45.488;12.238;2023-12-28T08:03:29;40.17;;;28.83;;
38787;SDS011;24536;45.488;12.238;2023-12-28T08:05:54;34.97;;;26.58;;
38787;SDS011;24536;45.488;12.238;2023-12-28T08:08:20;41.05;;;27.20;;
38787;SDS011;24536;45.488;12.238;2023-12-28T08:10:46;41.45;;;27.35;;
38787;SDS011;24536;45.488;12.238;2023-12-28T08:13:11;41.65;;;30.83;;
38787;SDS011;24536;45.488;12.238;2023-12-28T08:15:37;44.70;;;30.48;;
38787;SDS011;24536;45.488;12.238;2023-12-28T08:18:03;40.75;;;24.98;;
38787;SDS011;24536;45.488;12.238;2023-12-28T08:20:29;49.65;;;29.10;;
38787;SDS011;24536;45.488;12.238;2023-12-28T08:22:54;36.58;;;25.67;;
38787;SDS011;24536;45.488;12.238;2023-12-28T08:25:20;46.53;;;32.10;;
38787;SDS011;24536;45.488;12.238;2023-12-28T08:27:47;41.28;;;28.88;;
38787;SDS011;24536;45.488;12.238;2023-12-28T08:30:13;32.80;;;24.17;;
38787;SDS011;24536;45.488;12.238;2023-12-28T08:32:39;38.78;;;28.40;;
38787;SDS011;24536;45.488;12.238;2023-12-28T08:35:04;36.85;;;26.40;;
38787;SDS011;24536;45.488;12.238;2023-12-28T08:37:31;37.13;;;26.23;;
38787;SDS011;24536;45.488;12.238;2023-12-28T08:39:58;38.90;;;25.15;;
38787;SDS011;24536;45.488;12.238;2023-12-28T08:42:23;38.33;;;26.92;;
38787;SDS011;24536;45.488;12.238;2023-12-28T08:44:49;42.38;;;29.73;;
38787;SDS011;24536;45.488;12.238;2023-12-28T08:47:15;37.58;;;26.38;;
38787;SDS011;24536;45.488;12.238;2023-12-28T08:49:41;39.15;;;28.23;;
38787;SDS011;24536;45.488;12.238;2023-12-28T08:52:06;36.15;;;26.00;;
38787;SDS011;24536;45.488;12.238;2023-12-28T08:54:32;36.50;;;26.45;;
38787;SDS011;24536;45.488;12.238;2023-12-28T08:56:58;40.80;;;27.52;;
38787;SDS011;24536;45.488;12.238;2023-12-28T08:59:24;39.53;;;27.75;;
38787;SDS011;24536;45.488;12.238;2023-12-28T09:01:52;38.00;;;27.15;;
38787;SDS011;24536;45.488;12.238;2023-12-28T09:04:18;43.92;;;27.85;;
38787;SDS011;24536;45.488;12.238;2023-12-28T09:06:44;38.60;;;27.38;;
38787;SDS011;24536;45.488;12.238;2023-12-28T09:09:10;41.55;;;27.48;;
38787;SDS011;24536;45.488;12.238;2023-12-28T09:11:35;42.78;;;28.02;;
38787;SDS011;24536;45.488;12.238;2023-12-28T09:14:01;42.63;;;29.38;;
38787;SDS011;24536;45.488;12.238;2023-12-28T09:16:27;38.88;;;27.48;;
38787;SDS011;24536;45.488;12.238;2023-12-28T09:18:53;37.17;;;27.00;;
38787;SDS011;24536;45.488;12.238;2023-12-28T09:21:19;38.45;;;28.05;;
38787;SDS011;24536;45.488;12.238;2023-12-28T09:23:45;41.15;;;28.48;;
38787;SDS011;24536;45.488;12.238;2023-12-28T09:26:11;37.20;;;27.67;;
38787;SDS011;24536;45.488;12.238;2023-12-28T09:28:37;44.00;;;30.08;;
38787;SDS011;24536;45.488;12.238;2023-12-28T09:31:03;42.17;;;28.73;;
38787;SDS011;24536;45.488;12.238;2023-12-28T09:33:29;43.75;;;29.45;;
38787;SDS011;24536;45.488;12.238;2023-12-28T09:35:55;41.47;;;28.63;;
38787;SDS011;24536;45.488;12.238;2023-12-28T09:38:21;40.60;;;28.13;;
38787;SDS011;24536;45.488;12.238;2023-12-28T09:40:47;38.78;;;28.13;;
38787;SDS011;24536;45.488;12.238;2023-12-28T09:43:24;40.10;;;27.45;;
38787;SDS011;24536;45.488;12.238;2023-12-28T09:45:51;37.38;;;27.85;;
38787;SDS011;24536;45.488;12.238;2023-12-28T09:48:17;38.47;;;27.10;;
38787;SDS011;24536;45.488;12.238;2023-12-28T09:50:54;43.97;;;28.77;;
38787;SDS011;24536;45.488;12.238;2023-12-28T09:53:22;40.90;;;28.58;;
38787;SDS011;24536;45.488;12.238;2023-12-28T09:55:48;41.13;;;27.15;;
38787;SDS011;24536;45.488;12.238;2023-12-28T09:58:17;38.90;;;26.05;;
38787;SDS011;24536;45.488;12.238;2023-12-28T10:00:44;39.15;;;28.25;;
38787;SDS011;24536;45.488;12.238;2023-12-28T10:03:14;39.67;;;29.05;;
38787;SDS011;24536;45.488;12.238;2023-12-28T10:05:41;40.42;;;27.67;;
38787;SDS011;24536;45.488;12.238;2023-12-28T10:08:08;38.53;;;28.20;;
38787;SDS011;24536;45.488;12.238;2023-12-28T10:10:35;43.40;;;29.75;;
38787;SDS011;24536;45.488;12.238;2023-12-28T10:13:01;39.13;;;27.73;;
38787;SDS011;24536;45.488;12.238;2023-12-28T10:15:27;40.20;;;27.42;;
38787;SDS011;24536;45.488;12.238;2023-12-28T10:17:55;37.00;;;26.17;;
38787;SDS011;24536;45.488;12.238;2023-12-28T10:20:21;47.88;;;30.27;;
38787;SDS011;24536;45.488;12.238;2023-12-28T10:22:47;52.05;;;35.25;;
38787;SDS011;24536;45.488;12.238;2023-12-28T10:25:13;46.13;;;30.58;;
38787;SDS011;24536;45.488;12.238;2023-12-28T10:27:39;36.72;;;26.80;;
38787;SDS011;24536;45.488;12.238;2023-12-28T10:30:08;38.72;;;27.90;;
38787;SDS011;24536;45.488;12.238;2023-12-28T10:32:44;38.35;;;26.10;;
38787;SDS011;24536;45.488;12.238;2023-12-28T10:40:50;46.05;;;27.88;;
38787;SDS011;24536;45.488;12.238;2023-12-28T10:43:17;37.72;;;27.60;;
38787;SDS011;24536;45.488;12.238;2023-12-28T10:45:46;37.90;;;26.58;;
38787;SDS011;24536;45.488;12.238;2023-12-28T10:48:15;37.42;;;26.20;;
38787;SDS011;24536;45.488;12.238;2023-12-28T10:50:49;36.60;;;25.98;;
38787;SDS011;24536;45.488;12.238;2023-12-28T10:53:33;35.33;;;26.98;;
38787;SDS011;24536;45.488;12.238;2023-12-28T11:01:37;39.83;;;27.42;;
38787;SDS011;24536;45.488;12.238;2023-12-28T11:04:07;43.63;;;28.45;;
38787;SDS011;24536;45.488;12.238;2023-12-28T11:06:49;36.85;;;26.58;;
38787;SDS011;24536;45.488;12.238;2023-12-28T11:09:16;38.75;;;28.17;;
38787;SDS011;24536;45.488;12.238;2023-12-28T11:11:43;37.65;;;27.38;;
38787;SDS011;24536;45.488;12.238;2023-12-28T11:14:10;33.15;;;25.17;;
38787;SDS011;24536;45.488;12.238;2023-12-28T11:16:37;40.83;;;27.75;;
38787;SDS011;24536;45.488;12.238;2023-12-28T11:19:05;37.28;;;27.08;;
38787;SDS011;24536;45.488;12.238;2023-12-28T11:21:32;42.90;;;27.58;;
38787;SDS011;24536;45.488;12.238;2023-12-28T11:24:21;46.75;;;32.33;;
38787;SDS011;24536;45.488;12.238;2023-12-28T11:27:22;39.45;;;27.05;;
38787;SDS011;24536;45.488;12.238;2023-12-28T11:30:18;39.22;;;28.10;;
38787;SDS011;24536;45.488;12.238;2023-12-28T11:33:05;40.47;;;29.33;;
38787;SDS011;24536;45.488;12.238;2023-12-28T11:36:11;36.70;;;26.17;;
38787;SDS011;24536;45.488;12.238;2023-12-28T11:42:31;34.45;;;25.10;;
38787;SDS011;24536;45.488;12.238;2023-12-28T11:48:06;35.10;;;24.45;;
38787;SDS011;24536;45.488;12.238;2023-12-28T11:53:49;31.55;;;23.02;;
38787;SDS011;24536;45.488;12.238;2023-12-28T12:02:50;30.45;;;23.63;;
38787;SDS011;24536;45.488;12.238;2023-12-28T12:08:34;40.13;;;30.10;;
38787;SDS011;24536;45.488;12.238;2023-12-28T12:11:06;34.53;;;24.17;;
38787;SDS011;24536;45.488;12.238;2023-12-28T12:13:32;33.83;;;24.80;;
38787;SDS011;24536;45.488;12.238;2023-12-28T12:15:59;33.97;;;24.83;;
38787;SDS011;24536;45.488;12.238;2023-12-28T12:18:27;33.83;;;24.63;;
38787;SDS011;24536;45.488;12.238;2023-12-28T12:20:54;33.38;;;25.15;;
38787;SDS011;24536;45.488;12.238;2023-12-28T12:23:21;32.90;;;24.27;;
38787;SDS011;24536;45.488;12.238;2023-12-28T12:25:47;38.30;;;26.63;;
38787;SDS011;24536;45.488;12.238;2023-12-28T12:28:12;37.47;;;27.02;;
38787;SDS011;24536;45.488;12.238;2023-12-28T12:30:42;39.25;;;28.05;;
38787;SDS011;24536;45.488;12.238;2023-12-28T12:33:19;38.72;;;27.67;;
38787;SDS011;24536;45.488;12.238;2023-12-28T12:35:45;40.53;;;28.58;;
38787;SDS011;24536;45.488;12.238;2023-12-28T12:38:11;41.83;;;29.27;;
38787;SDS011;24536;45.488;12.238;2023-12-28T12:40:37;43.53;;;29.25;;
38787;SDS011;24536;45.488;12.238;2023-12-28T12:43:03;36.90;;;27.55;;
38787;SDS011;24536;45.488;12.238;2023-12-28T12:45:29;39.55;;;29.73;;
38787;SDS011;24536;45.488;12.238;2023-12-28T12:47:54;42.38;;;29.33;;
38787;SDS011;24536;45.488;12.238;2023-12-28T12:50:22;39.13;;;30.00;;
38787;SDS011;24536;45.488;12.238;2023-12-28T12:52:53;42.50;;;31.65;;
38787;SDS011;24536;45.488;12.238;2023-12-28T12:55:19;37.38;;;28.20;;
38787;SDS011;24536;45.488;12.238;2023-12-28T12:57:45;37.95;;;27.80;;
38787;SDS011;24536;45.488;12.238;2023-12-28T13:00:11;36.88;;;26.63;;
38787;SDS011;24536;45.488;12.238;2023-12-28T13:02:37;37.63;;;29.10;;
38787;SDS011;24536;45.488;12.238;2023-12-28T13:05:03;39.88;;;27.50;;
38787;SDS011;24536;45.488;12.238;2023-12-28T13:07:30;41.92;;;28.42;;
38787;SDS011;24536;45.488;12.238;2023-12-28T13:09:57;35.28;;;27.40;;
38787;SDS011;24536;45.488;12.238;2023-12-28T13:12:22;35.72;;;28.05;;
38787;SDS011;24536;45.488;12.238;2023-12-28T13:14:49;39.78;;;29.40;;
38787;SDS011;24536;45.488;12.238;2023-12-28T13:17:14;40.25;;;28.23;;
38787;SDS011;24536;45.488;12.238;2023-12-28T13:19:54;37.47;;;27.27;;
38787;SDS011;24536;45.488;12.238;2023-12-28T13:22:20;38.42;;;28.27;;
38787;SDS011;24536;45.488;12.238;2023-12-28T13:24:46;36.40;;;26.63;;
38787;SDS011;24536;45.488;12.238;2023-12-28T13:27:11;44.20;;;27.58;;
38787;SDS011;24536;45.488;12.238;2023-12-28T13:29:39;40.15;;;27.92;;
38787;SDS011;24536;45.488;12.238;2023-12-28T13:32:05;36.30;;;27.55;;
38787;SDS011;24536;45.488;12.238;2023-12-28T13:34:31;33.88;;;26.42;;
38787;SDS011;24536;45.488;12.238;2023-12-28T13:36:57;37.50;;;26.85;;
38787;SDS011;24536;45.488;12.238;2023-12-28T13:39:24;46.97;;;33.78;;
38787;SDS011;24536;45.488;12.238;2023-12-28T13:41:50;38.17;;;26.13;;
38787;SDS011;24536;45.488;12.238;2023-12-28T13:44:16;29.13;;;22.38;;
38787;SDS011;24536;45.488;12.238;2023-12-28T13:46:42;36.75;;;26.05;;
38787;SDS011;24536;45.488;12.238;2023-12-28T13:49:08;31.75;;;25.02;;
38787;SDS011;24536;45.488;12.238;2023-12-28T13:51:34;35.97;;;24.95;;
38787;SDS011;24536;45.488;12.238;2023-12-28T13:54:00;37.42;;;27.13;;
38787;SDS011;24536;45.488;12.238;2023-12-28T13:56:25;35.00;;;23.48;;
38787;SDS011;24536;45.488;12.238;2023-12-28T13:58:51;34.53;;;24.17;;
38787;SDS011;24536;45.488;12.238;2023-12-28T14:01:17;32.67;;;23.42;;
38787;SDS011;24536;45.488;12.238;2023-12-28T14:03:42;32.28;;;22.40;;
38787;SDS011;24536;45.488;12.238;2023-12-28T14:06:10;34.55;;;25.17;;
38787;SDS011;24536;45.488;12.238;2023-12-28T14:08:36;37.15;;;24.98;;
38787;SDS011;24536;45.488;12.238;2023-12-28T14:11:02;32.40;;;23.48;;
38787;SDS011;24536;45.488;12.238;2023-12-28T14:13:28;35.17;;;23.15;;
38787;SDS011;24536;45.488;12.238;2023-12-28T14:15:56;33.30;;;22.77;;
38787;SDS011;24536;45.488;12.238;2023-12-28T14:18:21;32.30;;;22.00;;
38787;SDS011;24536;45.488;12.238;2023-12-28T14:20:47;28.70;;;22.60;;
38787;SDS011;24536;45.488;12.238;2023-12-28T14:23:17;33.03;;;24.20;;
38787;SDS011;24536;45.488;12.238;2023-12-28T14:25:43;29.38;;;22.77;;
38787;SDS011;24536;45.488;12.238;2023-12-28T14:28:09;31.42;;;22.25;;
38787;SDS011;24536;45.488;12.238;2023-12-28T14:30:36;32.03;;;21.60;;
38787;SDS011;24536;45.488;12.238;2023-12-28T14:33:02;32.85;;;24.08;;
38787;SDS011;24536;45.488;12.238;2023-12-28T14:35:27;31.50;;;21.77;;
38787;SDS011;24536;45.488;12.238;2023-12-28T14:37:53;33.97;;;22.90;;